sensor_id;sensor_type;location;lat;lon;timestamp;temperature;humidity
65239;SHT30;51827;51.186;6.926;2022-11-02T00:00:11;20.52;58.27
65239;SHT30;51827;51.186;6.926;2022-11-02T00:01:20;20.52;58.22
65239;SHT30;51827;51.186;6.926;2022-11-02T00:02:20;20.49;58.25
65239;SHT30;51827;51.186;6.926;2022-11-02T00:03:20;20.53;58.26
65239;SHT30;51827;51.186;6.926;2022-11-02T00:04:20;20.49;58.22
65239;SHT30;51827;51.186;6.926;2022-11-02T00:05:21;20.51;58.23
65239;SHT30;51827;51.186;6.926;2022-11-02T00:06:21;20.52;58.16
65239;SHT30;51827;51.186;6.926;2022-11-02T00:07:21;20.49;58.18
65239;SHT30;51827;51.186;6.926;2022-11-02T00:08:22;20.52;58.13
65239;SHT30;51827;51.186;6.926;2022-11-02T00:09:22;20.48;58.17
65239;SHT30;51827;51.186;6.926;2022-11-02T00:10:23;20.49;58.17
65239;SHT30;51827;51.186;6.926;2022-11-02T00:11:23;20.51;58.22
65239;SHT30;51827;51.186;6.926;2022-11-02T00:12:23;20.49;58.19
65239;SHT30;51827;51.186;6.926;2022-11-02T00:13:24;20.49;58.21
65239;SHT30;51827;51.186;6.926;2022-11-02T00:14:24;20.49;58.14
65239;SHT30;51827;51.186;6.926;2022-11-02T00:15:26;20.52;58.13
65239;SHT30;51827;51.186;6.926;2022-11-02T00:16:27;20.51;58.15
65239;SHT30;51827;51.186;6.926;2022-11-02T00:17:28;20.51;58.10
65239;SHT30;51827;51.186;6.926;2022-11-02T00:18:28;20.49;58.14
65239;SHT30;51827;51.186;6.926;2022-11-02T00:19:29;20.51;58.15
65239;SHT30;51827;51.186;6.926;2022-11-02T00:20:29;20.47;58.13
65239;SHT30;51827;51.186;6.926;2022-11-02T00:21:30;20.49;58.10
65239;SHT30;51827;51.186;6.926;2022-11-02T00:22:30;20.51;58.13
65239;SHT30;51827;51.186;6.926;2022-11-02T00:23:32;20.49;58.07
65239;SHT30;51827;51.186;6.926;2022-11-02T00:24:32;20.45;58.06
65239;SHT30;51827;51.186;6.926;2022-11-02T00:25:33;20.51;58.05
65239;SHT30;51827;51.186;6.926;2022-11-02T00:26:35;20.48;58.08
65239;SHT30;51827;51.186;6.926;2022-11-02T00:27:35;20.49;58.02
65239;SHT30;51827;51.186;6.926;2022-11-02T00:28:35;20.48;58.05
65239;SHT30;51827;51.186;6.926;2022-11-02T00:29:36;20.47;58.03
65239;SHT30;51827;51.186;6.926;2022-11-02T00:30:36;20.49;58.00
65239;SHT30;51827;51.186;6.926;2022-11-02T00:31:37;20.51;58.02
65239;SHT30;51827;51.186;6.926;2022-11-02T00:32:37;20.51;57.96
65239;SHT30;51827;51.186;6.926;2022-11-02T00:33:37;20.51;57.98
65239;SHT30;51827;51.186;6.926;2022-11-02T00:34:38;20.48;57.96
65239;SHT30;51827;51.186;6.926;2022-11-02T00:35:38;20.49;57.95
65239;SHT30;51827;51.186;6.926;2022-11-02T00:36:38;20.48;58.01
65239;SHT30;51827;51.186;6.926;2022-11-02T00:37:39;20.48;57.98
65239;SHT30;51827;51.186;6.926;2022-11-02T00:38:39;20.48;57.96
65239;SHT30;51827;51.186;6.926;2022-11-02T00:39:39;20.45;57.99
65239;SHT30;51827;51.186;6.926;2022-11-02T00:40:39;20.47;57.98
65239;SHT30;51827;51.186;6.926;2022-11-02T00:41:40;20.47;57.95
65239;SHT30;51827;51.186;6.926;2022-11-02T00:42:40;20.45;57.95
65239;SHT30;51827;51.186;6.926;2022-11-02T00:43:40;20.48;58.00
65239;SHT30;51827;51.186;6.926;2022-11-02T00:44:41;20.47;58.03
65239;SHT30;51827;51.186;6.926;2022-11-02T00:45:41;20.48;58.00
65239;SHT30;51827;51.186;6.926;2022-11-02T00:46:41;20.45;58.00
65239;SHT30;51827;51.186;6.926;2022-11-02T00:47:42;20.47;58.00
65239;SHT30;51827;51.186;6.926;2022-11-02T00:48:42;20.47;58.01
65239;SHT30;51827;51.186;6.926;2022-11-02T00:49:42;20.47;58.06
65239;SHT30;51827;51.186;6.926;2022-11-02T00:50:42;20.49;57.98
65239;SHT30;51827;51.186;6.926;2022-11-02T00:51:43;20.48;58.03
65239;SHT30;51827;51.186;6.926;2022-11-02T00:52:43;20.49;57.99
65239;SHT30;51827;51.186;6.926;2022-11-02T00:53:43;20.48;58.03
65239;SHT30;51827;51.186;6.926;2022-11-02T00:54:43;20.49;57.99
65239;SHT30;51827;51.186;6.926;2022-11-02T00:55:43;20.48;57.98
65239;SHT30;51827;51.186;6.926;2022-11-02T00:56:44;20.47;58.02
65239;SHT30;51827;51.186;6.926;2022-11-02T00:57:44;20.49;58.00
65239;SHT30;51827;51.186;6.926;2022-11-02T00:58:44;20.47;58.00
65239;SHT30;51827;51.186;6.926;2022-11-02T00:59:44;20.47;58.02
65239;SHT30;51827;51.186;6.926;2022-11-02T01:00:45;20.47;58.03
65239;SHT30;51827;51.186;6.926;2022-11-02T01:01:45;20.48;58.02
65239;SHT30;51827;51.186;6.926;2022-11-02T01:02:45;20.48;58.06
65239;SHT30;51827;51.186;6.926;2022-11-02T01:03:45;20.45;58.02
65239;SHT30;51827;51.186;6.926;2022-11-02T01:04:46;20.47;58.00
65239;SHT30;51827;51.186;6.926;2022-11-02T01:05:49;20.45;57.99
65239;SHT30;51827;51.186;6.926;2022-11-02T01:06:49;20.47;57.95
65239;SHT30;51827;51.186;6.926;2022-11-02T01:07:51;20.47;57.96
65239;SHT30;51827;51.186;6.926;2022-11-02T01:08:52;20.42;57.96
65239;SHT30;51827;51.186;6.926;2022-11-02T01:09:53;20.47;58.01
65239;SHT30;51827;51.186;6.926;2022-11-02T01:10:53;20.44;57.98
65239;SHT30;51827;51.186;6.926;2022-11-02T01:11:54;20.45;58.01
65239;SHT30;51827;51.186;6.926;2022-11-02T01:12:54;20.45;58.04
65239;SHT30;51827;51.186;6.926;2022-11-02T01:13:54;20.45;58.01
65239;SHT30;51827;51.186;6.926;2022-11-02T01:14:54;20.44;57.99
65239;SHT30;51827;51.186;6.926;2022-11-02T01:15:55;20.45;58.01
65239;SHT30;51827;51.186;6.926;2022-11-02T01:16:55;20.45;58.03
65239;SHT30;51827;51.186;6.926;2022-11-02T01:17:55;20.45;57.97
65239;SHT30;51827;51.186;6.926;2022-11-02T01:18:55;20.42;58.01
65239;SHT30;51827;51.186;6.926;2022-11-02T01:19:56;20.44;57.99
65239;SHT30;51827;51.186;6.926;2022-11-02T01:20:57;20.45;57.95
65239;SHT30;51827;51.186;6.926;2022-11-02T01:21:57;20.47;57.92
65239;SHT30;51827;51.186;6.926;2022-11-02T01:22:57;20.45;57.97
65239;SHT30;51827;51.186;6.926;2022-11-02T01:23:58;20.47;57.98
65239;SHT30;51827;51.186;6.926;2022-11-02T01:24:58;20.44;57.94
65239;SHT30;51827;51.186;6.926;2022-11-02T01:26:02;20.42;57.93
65239;SHT30;51827;51.186;6.926;2022-11-02T01:27:02;20.44;57.96
65239;SHT30;51827;51.186;6.926;2022-11-02T01:28:03;20.42;58.00
65239;SHT30;51827;51.186;6.926;2022-11-02T01:29:03;20.44;57.95
65239;SHT30;51827;51.186;6.926;2022-11-02T01:30:04;20.42;57.97
65239;SHT30;51827;51.186;6.926;2022-11-02T01:31:05;20.45;58.00
65239;SHT30;51827;51.186;6.926;2022-11-02T01:32:06;20.41;57.97
65239;SHT30;51827;51.186;6.926;2022-11-02T01:33:07;20.42;57.95
65239;SHT30;51827;51.186;6.926;2022-11-02T01:34:07;20.41;58.00
65239;SHT30;51827;51.186;6.926;2022-11-02T01:35:07;20.44;57.94
65239;SHT30;51827;51.186;6.926;2022-11-02T01:36:10;20.42;57.95
65239;SHT30;51827;51.186;6.926;2022-11-02T01:37:10;20.41;57.96
65239;SHT30;51827;51.186;6.926;2022-11-02T01:38:10;20.41;57.96
65239;SHT30;51827;51.186;6.926;2022-11-02T01:39:11;20.41;57.93
65239;SHT30;51827;51.186;6.926;2022-11-02T01:40:12;20.44;57.91
65239;SHT30;51827;51.186;6.926;2022-11-02T01:41:12;20.39;57.93
65239;SHT30;51827;51.186;6.926;2022-11-02T01:42:23;20.39;57.94
65239;SHT30;51827;51.186;6.926;2022-11-02T01:43:28;20.42;57.93
65239;SHT30;51827;51.186;6.926;2022-11-02T01:44:32;20.41;57.92
65239;SHT30;51827;51.186;6.926;2022-11-02T01:45:32;20.42;57.88
65239;SHT30;51827;51.186;6.926;2022-11-02T01:46:40;20.41;57.92
65239;SHT30;51827;51.186;6.926;2022-11-02T01:47:43;20.42;57.89
65239;SHT30;51827;51.186;6.926;2022-11-02T01:48:54;20.39;57.87
65239;SHT30;51827;51.186;6.926;2022-11-02T01:50:08;20.41;57.90
65239;SHT30;51827;51.186;6.926;2022-11-02T01:51:14;20.39;57.90
65239;SHT30;51827;51.186;6.926;2022-11-02T01:52:29;20.42;57.89
65239;SHT30;51827;51.186;6.926;2022-11-02T01:53:30;20.39;57.88
65239;SHT30;51827;51.186;6.926;2022-11-02T01:54:47;20.39;57.89
65239;SHT30;51827;51.186;6.926;2022-11-02T01:55:49;20.38;57.92
65239;SHT30;51827;51.186;6.926;2022-11-02T01:56:56;20.39;57.87
65239;SHT30;51827;51.186;6.926;2022-11-02T01:58:10;20.38;57.86
65239;SHT30;51827;51.186;6.926;2022-11-02T01:59:16;20.41;57.79
65239;SHT30;51827;51.186;6.926;2022-11-02T02:00:17;20.41;57.85
65239;SHT30;51827;51.186;6.926;2022-11-02T02:01:18;20.37;57.87
65239;SHT30;51827;51.186;6.926;2022-11-02T02:02:21;20.39;57.89
65239;SHT30;51827;51.186;6.926;2022-11-02T02:03:21;20.39;57.86
65239;SHT30;51827;51.186;6.926;2022-11-02T02:04:22;20.41;57.85
65239;SHT30;51827;51.186;6.926;2022-11-02T02:05:23;20.39;57.83
65239;SHT30;51827;51.186;6.926;2022-11-02T02:06:24;20.39;57.88
65239;SHT30;51827;51.186;6.926;2022-11-02T02:07:25;20.42;57.87
65239;SHT30;51827;51.186;6.926;2022-11-02T02:08:26;20.38;57.83
65239;SHT30;51827;51.186;6.926;2022-11-02T02:09:27;20.38;57.83
65239;SHT30;51827;51.186;6.926;2022-11-02T02:10:28;20.38;57.81
65239;SHT30;51827;51.186;6.926;2022-11-02T02:12:32;20.37;57.86
65239;SHT30;51827;51.186;6.926;2022-11-02T02:13:33;20.37;57.88
65239;SHT30;51827;51.186;6.926;2022-11-02T02:14:34;20.34;57.88
65239;SHT30;51827;51.186;6.926;2022-11-02T02:16:09;20.38;57.82
65239;SHT30;51827;51.186;6.926;2022-11-02T02:18:47;20.37;57.80
65239;SHT30;51827;51.186;6.926;2022-11-02T02:19:58;20.35;57.83
65239;SHT30;51827;51.186;6.926;2022-11-02T02:29:22;20.34;57.81
65239;SHT30;51827;51.186;6.926;2022-11-02T02:30:23;20.37;57.81
65239;SHT30;51827;51.186;6.926;2022-11-02T02:31:39;20.35;57.82
65239;SHT30;51827;51.186;6.926;2022-11-02T02:33:00;20.32;57.78
65239;SHT30;51827;51.186;6.926;2022-11-02T02:34:20;20.37;57.75
65239;SHT30;51827;51.186;6.926;2022-11-02T02:35:41;20.35;57.75
65239;SHT30;51827;51.186;6.926;2022-11-02T02:36:57;20.35;57.75
65239;SHT30;51827;51.186;6.926;2022-11-02T02:38:20;20.35;57.74
65239;SHT30;51827;51.186;6.926;2022-11-02T02:40:32;20.35;57.75
65239;SHT30;51827;51.186;6.926;2022-11-02T02:41:44;20.35;57.71
65239;SHT30;51827;51.186;6.926;2022-11-02T02:42:59;20.37;57.74
65239;SHT30;51827;51.186;6.926;2022-11-02T02:44:04;20.34;57.71
65239;SHT30;51827;51.186;6.926;2022-11-02T02:45:31;20.35;57.72
65239;SHT30;51827;51.186;6.926;2022-11-02T02:46:38;20.37;57.66
65239;SHT30;51827;51.186;6.926;2022-11-02T02:47:45;20.32;57.65
65239;SHT30;51827;51.186;6.926;2022-11-02T02:48:47;20.34;57.63
65239;SHT30;51827;51.186;6.926;2022-11-02T02:49:54;20.34;57.66
65239;SHT30;51827;51.186;6.926;2022-11-02T02:51:04;20.35;57.65
65239;SHT30;51827;51.186;6.926;2022-11-02T02:52:06;20.35;57.67
65239;SHT30;51827;51.186;6.926;2022-11-02T02:53:08;20.35;57.68
65239;SHT30;51827;51.186;6.926;2022-11-02T02:54:12;20.34;57.69
65239;SHT30;51827;51.186;6.926;2022-11-02T02:55:18;20.32;57.72
65239;SHT30;51827;51.186;6.926;2022-11-02T02:56:22;20.34;57.72
65239;SHT30;51827;51.186;6.926;2022-11-02T02:57:26;20.34;57.68
65239;SHT30;51827;51.186;6.926;2022-11-02T02:58:37;20.32;57.67
65239;SHT30;51827;51.186;6.926;2022-11-02T02:59:47;20.34;57.69
65239;SHT30;51827;51.186;6.926;2022-11-02T03:00:47;20.34;57.69
65239;SHT30;51827;51.186;6.926;2022-11-02T03:01:48;20.31;57.68
65239;SHT30;51827;51.186;6.926;2022-11-02T03:02:49;20.35;57.69
65239;SHT30;51827;51.186;6.926;2022-11-02T03:03:50;20.32;57.60
65239;SHT30;51827;51.186;6.926;2022-11-02T03:04:50;20.32;57.64
65239;SHT30;51827;51.186;6.926;2022-11-02T03:06:15;20.35;57.62
65239;SHT30;51827;51.186;6.926;2022-11-02T03:07:27;20.34;57.59
65239;SHT30;51827;51.186;6.926;2022-11-02T03:08:29;20.32;57.59
65239;SHT30;51827;51.186;6.926;2022-11-02T03:09:43;20.31;57.59
65239;SHT30;51827;51.186;6.926;2022-11-02T03:10:54;20.29;57.61
65239;SHT30;51827;51.186;6.926;2022-11-02T03:13:17;20.34;57.55
65239;SHT30;51827;51.186;6.926;2022-11-02T03:15:53;20.35;57.54
65239;SHT30;51827;51.186;6.926;2022-11-02T03:19:42;20.31;57.53
65239;SHT30;51827;51.186;6.926;2022-11-02T03:22:14;20.31;57.53
65239;SHT30;51827;51.186;6.926;2022-11-02T03:23:23;20.32;57.54
65239;SHT30;51827;51.186;6.926;2022-11-02T03:24:51;20.34;57.51
65239;SHT30;51827;51.186;6.926;2022-11-02T03:29:32;20.32;57.51
65239;SHT30;51827;51.186;6.926;2022-11-02T03:30:42;20.32;57.50
65239;SHT30;51827;51.186;6.926;2022-11-02T03:31:50;20.32;57.51
65239;SHT30;51827;51.186;6.926;2022-11-02T03:33:08;20.34;57.48
65239;SHT30;51827;51.186;6.926;2022-11-02T03:35:50;20.31;57.51
65239;SHT30;51827;51.186;6.926;2022-11-02T03:37:02;20.31;57.52
65239;SHT30;51827;51.186;6.926;2022-11-02T03:38:15;20.32;57.52
65239;SHT30;51827;51.186;6.926;2022-11-02T03:39:21;20.32;57.52
65239;SHT30;51827;51.186;6.926;2022-11-02T03:40:32;20.29;57.53
65239;SHT30;51827;51.186;6.926;2022-11-02T03:41:34;20.34;57.46
65239;SHT30;51827;51.186;6.926;2022-11-02T03:42:35;20.29;57.51
65239;SHT30;51827;51.186;6.926;2022-11-02T03:43:37;20.31;57.49
65239;SHT30;51827;51.186;6.926;2022-11-02T03:44:39;20.32;57.51
65239;SHT30;51827;51.186;6.926;2022-11-02T03:45:48;20.29;57.50
65239;SHT30;51827;51.186;6.926;2022-11-02T03:46:53;20.31;57.53
65239;SHT30;51827;51.186;6.926;2022-11-02T03:48:00;20.28;57.54
65239;SHT30;51827;51.186;6.926;2022-11-02T03:49:02;20.28;57.49
65239;SHT30;51827;51.186;6.926;2022-11-02T03:50:05;20.28;57.51
65239;SHT30;51827;51.186;6.926;2022-11-02T03:51:11;20.29;57.52
65239;SHT30;51827;51.186;6.926;2022-11-02T03:52:19;20.27;57.52
65239;SHT30;51827;51.186;6.926;2022-11-02T03:53:21;20.28;57.54
65239;SHT30;51827;51.186;6.926;2022-11-02T03:54:41;20.28;57.53
65239;SHT30;51827;51.186;6.926;2022-11-02T03:55:58;20.28;57.50
65239;SHT30;51827;51.186;6.926;2022-11-02T03:57:02;20.27;57.47
65239;SHT30;51827;51.186;6.926;2022-11-02T03:58:04;20.29;57.47
65239;SHT30;51827;51.186;6.926;2022-11-02T03:59:04;20.27;57.48
65239;SHT30;51827;51.186;6.926;2022-11-02T04:00:13;20.28;57.51
65239;SHT30;51827;51.186;6.926;2022-11-02T04:01:15;20.29;57.50
65239;SHT30;51827;51.186;6.926;2022-11-02T04:02:17;20.31;57.52
65239;SHT30;51827;51.186;6.926;2022-11-02T04:03:18;20.28;57.51
65239;SHT30;51827;51.186;6.926;2022-11-02T04:04:19;20.29;57.47
65239;SHT30;51827;51.186;6.926;2022-11-02T04:05:27;20.31;57.51
65239;SHT30;51827;51.186;6.926;2022-11-02T04:06:27;20.28;57.51
65239;SHT30;51827;51.186;6.926;2022-11-02T04:07:32;20.29;57.52
65239;SHT30;51827;51.186;6.926;2022-11-02T04:08:36;20.25;57.48
65239;SHT30;51827;51.186;6.926;2022-11-02T04:09:36;20.28;57.49
65239;SHT30;51827;51.186;6.926;2022-11-02T04:10:37;20.29;57.50
65239;SHT30;51827;51.186;6.926;2022-11-02T04:11:37;20.27;57.43
65239;SHT30;51827;51.186;6.926;2022-11-02T04:12:37;20.28;57.48
65239;SHT30;51827;51.186;6.926;2022-11-02T04:13:37;20.28;57.48
65239;SHT30;51827;51.186;6.926;2022-11-02T04:14:38;20.27;57.46
65239;SHT30;51827;51.186;6.926;2022-11-02T04:15:38;20.28;57.45
65239;SHT30;51827;51.186;6.926;2022-11-02T04:16:38;20.25;57.47
65239;SHT30;51827;51.186;6.926;2022-11-02T04:17:38;20.28;57.45
65239;SHT30;51827;51.186;6.926;2022-11-02T04:18:39;20.25;57.47
65239;SHT30;51827;51.186;6.926;2022-11-02T04:19:39;20.27;57.46
65239;SHT30;51827;51.186;6.926;2022-11-02T04:20:40;20.27;57.44
65239;SHT30;51827;51.186;6.926;2022-11-02T04:21:40;20.27;57.43
65239;SHT30;51827;51.186;6.926;2022-11-02T04:22:40;20.28;57.46
65239;SHT30;51827;51.186;6.926;2022-11-02T04:23:41;20.25;57.46
65239;SHT30;51827;51.186;6.926;2022-11-02T04:24:41;20.27;57.43
65239;SHT30;51827;51.186;6.926;2022-11-02T04:25:41;20.27;57.49
65239;SHT30;51827;51.186;6.926;2022-11-02T04:26:42;20.27;57.48
65239;SHT30;51827;51.186;6.926;2022-11-02T04:27:46;20.25;57.45
65239;SHT30;51827;51.186;6.926;2022-11-02T04:28:47;20.25;57.41
65239;SHT30;51827;51.186;6.926;2022-11-02T04:29:47;20.29;57.41
65239;SHT30;51827;51.186;6.926;2022-11-02T04:30:47;20.28;57.43
65239;SHT30;51827;51.186;6.926;2022-11-02T04:31:48;20.28;57.45
65239;SHT30;51827;51.186;6.926;2022-11-02T04:32:49;20.28;57.47
65239;SHT30;51827;51.186;6.926;2022-11-02T04:33:50;20.31;57.47
65239;SHT30;51827;51.186;6.926;2022-11-02T04:34:50;20.28;57.50
65239;SHT30;51827;51.186;6.926;2022-11-02T04:35:50;20.29;57.51
65239;SHT30;51827;51.186;6.926;2022-11-02T04:36:50;20.28;57.54
65239;SHT30;51827;51.186;6.926;2022-11-02T04:37:51;20.29;57.55
65239;SHT30;51827;51.186;6.926;2022-11-02T04:38:51;20.28;57.60
65239;SHT30;51827;51.186;6.926;2022-11-02T04:39:51;20.28;57.63
65239;SHT30;51827;51.186;6.926;2022-11-02T04:40:51;20.27;57.61
65239;SHT30;51827;51.186;6.926;2022-11-02T04:41:52;20.27;57.67
65239;SHT30;51827;51.186;6.926;2022-11-02T04:42:52;20.27;57.67
65239;SHT30;51827;51.186;6.926;2022-11-02T04:43:53;20.27;57.72
65239;SHT30;51827;51.186;6.926;2022-11-02T04:44:53;20.28;57.73
65239;SHT30;51827;51.186;6.926;2022-11-02T04:45:57;20.27;57.73
65239;SHT30;51827;51.186;6.926;2022-11-02T04:46:57;20.31;57.69
65239;SHT30;51827;51.186;6.926;2022-11-02T04:48:07;20.27;57.74
65239;SHT30;51827;51.186;6.926;2022-11-02T04:49:09;20.28;57.74
65239;SHT30;51827;51.186;6.926;2022-11-02T04:50:10;20.28;57.78
65239;SHT30;51827;51.186;6.926;2022-11-02T04:51:10;20.28;57.77
65239;SHT30;51827;51.186;6.926;2022-11-02T04:52:10;20.29;57.81
65239;SHT30;51827;51.186;6.926;2022-11-02T04:53:11;20.25;57.74
65239;SHT30;51827;51.186;6.926;2022-11-02T04:54:11;20.31;57.79
65239;SHT30;51827;51.186;6.926;2022-11-02T04:55:11;20.28;57.79
65239;SHT30;51827;51.186;6.926;2022-11-02T04:56:11;20.27;57.79
65239;SHT30;51827;51.186;6.926;2022-11-02T04:57:12;20.27;57.78
65239;SHT30;51827;51.186;6.926;2022-11-02T04:58:12;20.27;57.79
65239;SHT30;51827;51.186;6.926;2022-11-02T04:59:12;20.28;57.77
65239;SHT30;51827;51.186;6.926;2022-11-02T05:00:13;20.28;57.73
65239;SHT30;51827;51.186;6.926;2022-11-02T05:01:14;20.29;57.76
65239;SHT30;51827;51.186;6.926;2022-11-02T05:02:15;20.28;57.78
65239;SHT30;51827;51.186;6.926;2022-11-02T05:03:15;20.27;57.78
65239;SHT30;51827;51.186;6.926;2022-11-02T05:04:15;20.28;57.74
65239;SHT30;51827;51.186;6.926;2022-11-02T05:05:16;20.28;57.75
65239;SHT30;51827;51.186;6.926;2022-11-02T05:06:18;20.28;57.78
65239;SHT30;51827;51.186;6.926;2022-11-02T05:07:18;20.25;57.78
65239;SHT30;51827;51.186;6.926;2022-11-02T05:08:19;20.27;57.81
65239;SHT30;51827;51.186;6.926;2022-11-02T05:09:19;20.28;57.76
65239;SHT30;51827;51.186;6.926;2022-11-02T05:10:19;20.28;57.79
65239;SHT30;51827;51.186;6.926;2022-11-02T05:11:19;20.28;57.78
65239;SHT30;51827;51.186;6.926;2022-11-02T05:12:20;20.28;57.76
65239;SHT30;51827;51.186;6.926;2022-11-02T05:13:20;20.25;57.76
65239;SHT30;51827;51.186;6.926;2022-11-02T05:14:20;20.28;57.78
65239;SHT30;51827;51.186;6.926;2022-11-02T05:15:20;20.28;57.82
65239;SHT30;51827;51.186;6.926;2022-11-02T05:16:21;20.25;57.83
65239;SHT30;51827;51.186;6.926;2022-11-02T05:17:21;20.28;57.79
65239;SHT30;51827;51.186;6.926;2022-11-02T05:18:21;20.27;57.83
65239;SHT30;51827;51.186;6.926;2022-11-02T05:19:22;20.27;57.78
65239;SHT30;51827;51.186;6.926;2022-11-02T05:20:22;20.27;57.80
65239;SHT30;51827;51.186;6.926;2022-11-02T05:21:22;20.27;57.80
65239;SHT30;51827;51.186;6.926;2022-11-02T05:22:23;20.27;57.80
65239;SHT30;51827;51.186;6.926;2022-11-02T05:23:23;20.27;57.81
65239;SHT30;51827;51.186;6.926;2022-11-02T05:24:23;20.24;57.82
65239;SHT30;51827;51.186;6.926;2022-11-02T05:25:23;20.27;57.79
65239;SHT30;51827;51.186;6.926;2022-11-02T05:26:24;20.25;57.78
65239;SHT30;51827;51.186;6.926;2022-11-02T05:27:24;20.25;57.78
65239;SHT30;51827;51.186;6.926;2022-11-02T05:28:25;20.25;57.82
65239;SHT30;51827;51.186;6.926;2022-11-02T05:29:26;20.27;57.85
65239;SHT30;51827;51.186;6.926;2022-11-02T05:30:26;20.27;57.80
65239;SHT30;51827;51.186;6.926;2022-11-02T05:31:26;20.25;57.83
65239;SHT30;51827;51.186;6.926;2022-11-02T05:32:27;20.24;57.85
65239;SHT30;51827;51.186;6.926;2022-11-02T05:33:28;20.25;57.82
65239;SHT30;51827;51.186;6.926;2022-11-02T05:34:28;20.27;57.84
65239;SHT30;51827;51.186;6.926;2022-11-02T05:35:29;20.29;57.85
65239;SHT30;51827;51.186;6.926;2022-11-02T05:36:29;20.28;57.82
65239;SHT30;51827;51.186;6.926;2022-11-02T05:37:29;20.28;57.90
65239;SHT30;51827;51.186;6.926;2022-11-02T05:38:29;20.28;57.89
65239;SHT30;51827;51.186;6.926;2022-11-02T05:39:30;20.27;57.85
65239;SHT30;51827;51.186;6.926;2022-11-02T05:40:30;20.28;57.91
65239;SHT30;51827;51.186;6.926;2022-11-02T05:41:30;20.28;57.94
65239;SHT30;51827;51.186;6.926;2022-11-02T05:42:30;20.29;57.96
65239;SHT30;51827;51.186;6.926;2022-11-02T05:43:31;20.27;57.96
65239;SHT30;51827;51.186;6.926;2022-11-02T05:44:31;20.27;58.00
65239;SHT30;51827;51.186;6.926;2022-11-02T05:45:31;20.28;58.00
65239;SHT30;51827;51.186;6.926;2022-11-02T05:46:31;20.25;57.97
65239;SHT30;51827;51.186;6.926;2022-11-02T05:47:34;20.29;58.01
65239;SHT30;51827;51.186;6.926;2022-11-02T05:48:35;20.29;58.01
65239;SHT30;51827;51.186;6.926;2022-11-02T05:49:35;20.27;58.01
65239;SHT30;51827;51.186;6.926;2022-11-02T05:50:35;20.27;58.04
65239;SHT30;51827;51.186;6.926;2022-11-02T05:51:35;20.27;58.07
65239;SHT30;51827;51.186;6.926;2022-11-02T05:52:36;20.25;58.07
65239;SHT30;51827;51.186;6.926;2022-11-02T05:53:36;20.27;58.04
65239;SHT30;51827;51.186;6.926;2022-11-02T05:54:36;20.27;58.07
65239;SHT30;51827;51.186;6.926;2022-11-02T05:55:36;20.25;58.06
65239;SHT30;51827;51.186;6.926;2022-11-02T05:56:37;20.28;58.06
65239;SHT30;51827;51.186;6.926;2022-11-02T05:57:37;20.27;58.12
65239;SHT30;51827;51.186;6.926;2022-11-02T05:58:38;20.25;58.08
65239;SHT30;51827;51.186;6.926;2022-11-02T05:59:38;20.27;58.06
65239;SHT30;51827;51.186;6.926;2022-11-02T06:00:38;20.27;58.06
65239;SHT30;51827;51.186;6.926;2022-11-02T06:01:38;20.27;58.06
65239;SHT30;51827;51.186;6.926;2022-11-02T06:02:39;20.27;58.05
65239;SHT30;51827;51.186;6.926;2022-11-02T06:03:39;20.28;58.06
65239;SHT30;51827;51.186;6.926;2022-11-02T06:04:39;20.25;58.09
65239;SHT30;51827;51.186;6.926;2022-11-02T06:05:39;20.28;58.09
65239;SHT30;51827;51.186;6.926;2022-11-02T06:06:40;20.28;58.10
65239;SHT30;51827;51.186;6.926;2022-11-02T06:07:40;20.27;58.09
65239;SHT30;51827;51.186;6.926;2022-11-02T06:08:40;20.27;58.06
65239;SHT30;51827;51.186;6.926;2022-11-02T06:09:40;20.27;58.11
65239;SHT30;51827;51.186;6.926;2022-11-02T06:10:41;20.27;58.12
65239;SHT30;51827;51.186;6.926;2022-11-02T06:11:41;20.25;58.13
65239;SHT30;51827;51.186;6.926;2022-11-02T06:12:41;20.25;58.10
65239;SHT30;51827;51.186;6.926;2022-11-02T06:13:41;20.28;58.10
65239;SHT30;51827;51.186;6.926;2022-11-02T06:14:42;20.27;58.07
65239;SHT30;51827;51.186;6.926;2022-11-02T06:15:42;20.27;58.08
65239;SHT30;51827;51.186;6.926;2022-11-02T06:16:42;20.25;58.13
65239;SHT30;51827;51.186;6.926;2022-11-02T06:17:42;20.25;58.12
65239;SHT30;51827;51.186;6.926;2022-11-02T06:18:43;20.27;58.08
65239;SHT30;51827;51.186;6.926;2022-11-02T06:19:43;20.27;58.13
65239;SHT30;51827;51.186;6.926;2022-11-02T06:20:43;20.27;58.09
65239;SHT30;51827;51.186;6.926;2022-11-02T06:21:44;20.24;58.14
65239;SHT30;51827;51.186;6.926;2022-11-02T06:22:44;20.27;58.15
65239;SHT30;51827;51.186;6.926;2022-11-02T06:23:48;20.22;58.13
65239;SHT30;51827;51.186;6.926;2022-11-02T06:24:48;20.24;58.12
65239;SHT30;51827;51.186;6.926;2022-11-02T06:25:53;20.24;58.11
65239;SHT30;51827;51.186;6.926;2022-11-02T06:26:53;20.25;58.15
65239;SHT30;51827;51.186;6.926;2022-11-02T06:27:55;20.27;58.12
65239;SHT30;51827;51.186;6.926;2022-11-02T06:28:55;20.27;58.09
65239;SHT30;51827;51.186;6.926;2022-11-02T06:29:55;20.27;58.16
65239;SHT30;51827;51.186;6.926;2022-11-02T06:30:56;20.25;58.16
65239;SHT30;51827;51.186;6.926;2022-11-02T06:31:57;20.25;58.12
65239;SHT30;51827;51.186;6.926;2022-11-02T06:32:57;20.22;58.18
65239;SHT30;51827;51.186;6.926;2022-11-02T06:33:57;20.27;58.13
65239;SHT30;51827;51.186;6.926;2022-11-02T06:34:57;20.27;58.16
65239;SHT30;51827;51.186;6.926;2022-11-02T06:35:58;20.25;58.17
65239;SHT30;51827;51.186;6.926;2022-11-02T06:36:58;20.24;58.19
65239;SHT30;51827;51.186;6.926;2022-11-02T06:37:59;20.27;58.16
65239;SHT30;51827;51.186;6.926;2022-11-02T06:38:59;20.24;58.20
65239;SHT30;51827;51.186;6.926;2022-11-02T06:39:59;20.25;58.21
65239;SHT30;51827;51.186;6.926;2022-11-02T06:41:01;20.24;58.21
65239;SHT30;51827;51.186;6.926;2022-11-02T06:42:02;20.24;58.21
65239;SHT30;51827;51.186;6.926;2022-11-02T06:43:02;20.25;58.19
65239;SHT30;51827;51.186;6.926;2022-11-02T06:44:02;20.25;58.18
65239;SHT30;51827;51.186;6.926;2022-11-02T06:45:03;20.25;58.21
65239;SHT30;51827;51.186;6.926;2022-11-02T06:46:04;20.24;58.20
65239;SHT30;51827;51.186;6.926;2022-11-02T06:47:05;20.24;58.21
65239;SHT30;51827;51.186;6.926;2022-11-02T06:48:05;20.27;58.24
65239;SHT30;51827;51.186;6.926;2022-11-02T06:49:05;20.25;58.19
65239;SHT30;51827;51.186;6.926;2022-11-02T06:50:06;20.27;58.23
65239;SHT30;51827;51.186;6.926;2022-11-02T06:51:06;20.24;58.24
65239;SHT30;51827;51.186;6.926;2022-11-02T06:52:06;20.24;58.21
65239;SHT30;51827;51.186;6.926;2022-11-02T06:53:07;20.27;58.20
65239;SHT30;51827;51.186;6.926;2022-11-02T06:54:07;20.25;58.21
65239;SHT30;51827;51.186;6.926;2022-11-02T06:55:08;20.24;58.25
65239;SHT30;51827;51.186;6.926;2022-11-02T06:56:08;20.22;58.29
65239;SHT30;51827;51.186;6.926;2022-11-02T06:57:08;20.24;58.24
65239;SHT30;51827;51.186;6.926;2022-11-02T06:58:09;20.24;58.27